»·PEaware :: N379BN KSBA-KBUR

N379BN :: KSBA-KBUR

FLIGHT INFORMATION

Flight Status: Arrived
Operator: Privately registered:
United States
More flights under this callsign
Pilot: Brian N. (26816)
Aircraft: Unknown
(DA62)
More flights by this aircraft type
Origin: KSBA Santa Barbara Mun
United States
Destination: KBUR Bob Hope-Burbank
United States
More flights between these airports :: More routes between these airports
Route: DCT
File this flight plan on PilotEdge
Remarks: Cat 8
Altitude:
(Current/Filed)
3,500ft
Speed:
(Current/Filed)
180kts
Departed: 04-Nov-19 08:40 PM
Arrived: 04-Nov-19 09:11 PM
Distance/Time
Traveled:
75nm/0:31
Distance/Time
To Go:
Arrived

Flight Plot

Page will automatically refresh every two minutes.


Map Options




Map Legend


Flown Route
Filed Route
Departure Airport
Arrival Airport
Navaid (VOR, NDB)
Fix

Horizontal Profiles

Position Reports

Time Latitude Longitude Heading Altitude Ground
Speed
04-Nov-19 20:27 34.433368 -119.833306 166 13ft 0kts
04-Nov-19 20:28 34.433368 -119.833306 166 13ft 0kts
04-Nov-19 20:29 34.433368 -119.833306 166 13ft 0kts
04-Nov-19 20:30 34.433368 -119.833306 166 13ft 0kts
04-Nov-19 20:31 34.433368 -119.833306 166 13ft 0kts
04-Nov-19 20:32 34.433368 -119.833306 166 13ft 0kts
04-Nov-19 20:33 34.433368 -119.833306 166 13ft 0kts
04-Nov-19 20:34 34.433144 -119.833253 174 13ft 7kts
04-Nov-19 20:35 34.432234 -119.834662 247 13ft 12kts
04-Nov-19 20:36 34.429009 -119.834757 125 13ft 4kts
04-Nov-19 20:37 34.428677 -119.834620 178 13ft 0kts
04-Nov-19 20:38 34.427897 -119.835027 262 13ft 16kts
04-Nov-19 20:39 34.427158 -119.865310 267 518ft 112kts
04-Nov-19 20:40 34.424725 -119.908015 264 1378ft 136kts
04-Nov-19 20:41 34.430625 -119.951187 344 2181ft 143kts
04-Nov-19 20:42 34.444252 -119.913489 91 3031ft 153kts
04-Nov-19 20:43 34.437555 -119.860073 98 3506ft 171kts
04-Nov-19 20:44 34.428246 -119.800651 99 3504ft 189kts
04-Nov-19 20:45 34.418721 -119.739755 99 3496ft 177kts
04-Nov-19 20:46 34.409674 -119.681835 98 3500ft 174kts
04-Nov-19 20:47 34.400663 -119.624283 99 3501ft 173kts
04-Nov-19 20:48 34.391714 -119.567146 99 3506ft 173kts
04-Nov-19 20:49 34.383564 -119.515287 99 3508ft 173kts
04-Nov-19 20:50 34.374516 -119.457587 99 3523ft 182kts
04-Nov-19 20:51 34.365880 -119.402743 99 3513ft 185kts
04-Nov-19 20:52 34.357436 -119.348925 100 3503ft 178kts
04-Nov-19 20:53 34.348647 -119.292896 100 3512ft 184kts
04-Nov-19 20:54 34.339709 -119.236016 99 3507ft 180kts
04-Nov-19 20:55 34.330403 -119.176994 99 3501ft 176kts
04-Nov-19 20:56 34.321169 -119.118456 99 3508ft 181kts
04-Nov-19 20:57 34.311619 -119.058097 99 3506ft 186kts
04-Nov-19 20:58 34.302044 -118.997430 99 3496ft 178kts
04-Nov-19 20:59 34.292744 -118.938476 100 3511ft 185kts
04-Nov-19 21:00 34.283079 -118.877660 100 3508ft 178kts
04-Nov-19 21:01 34.273859 -118.819321 100 3509ft 176kts
04-Nov-19 21:02 34.264831 -118.762362 100 3527ft 178kts
04-Nov-19 21:03 34.255482 -118.703353 100 3523ft 178kts
04-Nov-19 21:04 34.247181 -118.651145 100 3524ft 180kts
04-Nov-19 21:05 34.237798 -118.591930 100 3507ft 177kts
04-Nov-19 21:06 34.228468 -118.533332 100 3515ft 183kts
04-Nov-19 21:07 34.208004 -118.480859 110 2867ft 171kts
04-Nov-19 21:08 34.199344 -118.429247 94 2054ft 159kts
04-Nov-19 21:09 34.198249 -118.385686 92 1064ft 106kts
04-Nov-19 21:10 34.197724 -118.358410 99 724ft 11kts
04-Nov-19 21:11 34.197109 -118.357954 175 724ft 8kts
04-Nov-19 21:12 34.195864 -118.360310 176 724ft 0kts
04-Nov-19 21:13 34.195864 -118.360310 176 724ft 0kts
04-Nov-19 21:14 34.195864 -118.360310 176 724ft 0kts
04-Nov-19 21:15 34.195864 -118.360310 176 724ft 0kts
04-Nov-19 21:16 34.195864 -118.360310 176 724ft 0kts
04-Nov-19 21:17 34.195864 -118.360310 176 724ft 0kts
04-Nov-19 21:18 34.195864 -118.360310 176 724ft 0kts
04-Nov-19 21:19 34.195864 -118.360310 176 724ft 0kts
04-Nov-19 21:20 34.195864 -118.360310 176 724ft 0kts
04-Nov-19 21:21 34.195864 -118.360310 176 724ft 0kts
04-Nov-19 21:22 34.195864 -118.360310 176 724ft 0kts
04-Nov-19 21:23 34.195864 -118.360310 176 724ft 0kts
04-Nov-19 21:24 34.195864 -118.360310 176 724ft 0kts
04-Nov-19 21:25 34.195864 -118.360310 176 724ft 0kts

Navigation Log

Ident Type
Flight plan parsing failed, navigation log unavailable